sensor_id;sensor_type;location;lat;lon;timestamp;temperature;humidity
5461;DHT22;2753;49.196;8.286;2023-06-04T00:00:05;18.90;59.50
5461;DHT22;2753;49.196;8.286;2023-06-04T00:02:32;18.90;59.60
5461;DHT22;2753;49.196;8.286;2023-06-04T00:04:58;18.80;59.50
5461;DHT22;2753;49.196;8.286;2023-06-04T00:07:24;18.80;59.60
5461;DHT22;2753;49.196;8.286;2023-06-04T00:09:49;18.80;59.70
5461;DHT22;2753;49.196;8.286;2023-06-04T00:12:16;18.70;59.60
5461;DHT22;2753;49.196;8.286;2023-06-04T00:14:42;18.70;59.80
5461;DHT22;2753;49.196;8.286;2023-06-04T00:17:09;18.70;59.80
5461;DHT22;2753;49.196;8.286;2023-06-04T00:19:35;18.60;59.80
5461;DHT22;2753;49.196;8.286;2023-06-04T00:22:01;18.60;60.00
5461;DHT22;2753;49.196;8.286;2023-06-04T00:24:26;18.60;59.90
5461;DHT22;2753;49.196;8.286;2023-06-04T00:26:52;18.60;59.90
5461;DHT22;2753;49.196;8.286;2023-06-04T00:29:19;18.50;59.90
5461;DHT22;2753;49.196;8.286;2023-06-04T00:31:44;18.60;60.00
5461;DHT22;2753;49.196;8.286;2023-06-04T00:34:11;18.60;59.90
5461;DHT22;2753;49.196;8.286;2023-06-04T00:36:39;18.50;59.90
5461;DHT22;2753;49.196;8.286;2023-06-04T00:39:07;18.50;59.80
5461;DHT22;2753;49.196;8.286;2023-06-04T00:41:33;18.50;59.80
5461;DHT22;2753;49.196;8.286;2023-06-04T00:43:59;18.50;59.90
5461;DHT22;2753;49.196;8.286;2023-06-04T00:46:27;18.40;60.00
5461;DHT22;2753;49.196;8.286;2023-06-04T00:48:54;18.30;60.00
5461;DHT22;2753;49.196;8.286;2023-06-04T00:51:21;18.30;60.00
5461;DHT22;2753;49.196;8.286;2023-06-04T00:53:52;18.30;60.00
5461;DHT22;2753;49.196;8.286;2023-06-04T00:56:18;18.30;60.00
5461;DHT22;2753;49.196;8.286;2023-06-04T00:58:45;18.20;60.00
5461;DHT22;2753;49.196;8.286;2023-06-04T01:07:19;18.10;60.00
5461;DHT22;2753;49.196;8.286;2023-06-04T01:09:45;18.10;59.90
5461;DHT22;2753;49.196;8.286;2023-06-04T01:12:11;18.10;60.00
5461;DHT22;2753;49.196;8.286;2023-06-04T01:14:37;18.10;59.90
5461;DHT22;2753;49.196;8.286;2023-06-04T01:25:37;17.90;59.90
5461;DHT22;2753;49.196;8.286;2023-06-04T01:28:13;17.90;59.80
5461;DHT22;2753;49.196;8.286;2023-06-04T01:30:43;17.90;59.90
5461;DHT22;2753;49.196;8.286;2023-06-04T01:33:12;17.80;59.70
5461;DHT22;2753;49.196;8.286;2023-06-04T01:35:39;17.90;59.80
5461;DHT22;2753;49.196;8.286;2023-06-04T01:38:05;17.80;59.80
5461;DHT22;2753;49.196;8.286;2023-06-04T01:40:31;17.80;59.70
5461;DHT22;2753;49.196;8.286;2023-06-04T01:42:57;17.80;59.70
5461;DHT22;2753;49.196;8.286;2023-06-04T01:45:25;17.70;59.60
5461;DHT22;2753;49.196;8.286;2023-06-04T01:47:51;17.70;59.60
5461;DHT22;2753;49.196;8.286;2023-06-04T01:50:17;17.70;59.70
5461;DHT22;2753;49.196;8.286;2023-06-04T01:52:43;17.70;59.70
5461;DHT22;2753;49.196;8.286;2023-06-04T01:55:11;17.60;59.70
5461;DHT22;2753;49.196;8.286;2023-06-04T01:57:38;17.60;59.80
5461;DHT22;2753;49.196;8.286;2023-06-04T02:00:08;17.50;59.70
5461;DHT22;2753;49.196;8.286;2023-06-04T02:02:35;17.60;59.80
5461;DHT22;2753;49.196;8.286;2023-06-04T02:05:07;17.50;59.70
5461;DHT22;2753;49.196;8.286;2023-06-04T02:08:06;17.50;59.70
5461;DHT22;2753;49.196;8.286;2023-06-04T02:10:33;17.50;59.80
5461;DHT22;2753;49.196;8.286;2023-06-04T02:13:00;17.40;59.80
5461;DHT22;2753;49.196;8.286;2023-06-04T02:15:57;17.40;59.80
5461;DHT22;2753;49.196;8.286;2023-06-04T02:18:23;17.30;59.70
5461;DHT22;2753;49.196;8.286;2023-06-04T02:20:50;17.30;59.80
5461;DHT22;2753;49.196;8.286;2023-06-04T02:23:17;17.20;59.70
5461;DHT22;2753;49.196;8.286;2023-06-04T02:25:44;17.30;59.90
5461;DHT22;2753;49.196;8.286;2023-06-04T02:28:10;17.20;59.80
5461;DHT22;2753;49.196;8.286;2023-06-04T02:30:36;17.20;59.80
5461;DHT22;2753;49.196;8.286;2023-06-04T02:33:02;17.30;59.80
5461;DHT22;2753;49.196;8.286;2023-06-04T02:35:32;17.20;59.90
5461;DHT22;2753;49.196;8.286;2023-06-04T02:37:58;17.10;59.90
5461;DHT22;2753;49.196;8.286;2023-06-04T02:40:33;17.10;59.90
5461;DHT22;2753;49.196;8.286;2023-06-04T02:42:58;17.10;59.90
5461;DHT22;2753;49.196;8.286;2023-06-04T02:45:24;17.10;59.80
5461;DHT22;2753;49.196;8.286;2023-06-04T02:47:50;17.10;59.90
5461;DHT22;2753;49.196;8.286;2023-06-04T02:50:16;17.10;59.90
5461;DHT22;2753;49.196;8.286;2023-06-04T02:52:42;17.00;59.80
5461;DHT22;2753;49.196;8.286;2023-06-04T02:55:08;17.00;60.00
5461;DHT22;2753;49.196;8.286;2023-06-04T02:57:35;17.00;60.00
5461;DHT22;2753;49.196;8.286;2023-06-04T03:00:01;17.00;60.00
5461;DHT22;2753;49.196;8.286;2023-06-04T03:02:33;16.90;60.00
5461;DHT22;2753;49.196;8.286;2023-06-04T03:04:58;16.90;60.00
5461;DHT22;2753;49.196;8.286;2023-06-04T03:07:24;16.90;60.00
5461;DHT22;2753;49.196;8.286;2023-06-04T03:09:50;16.90;60.10
5461;DHT22;2753;49.196;8.286;2023-06-04T03:12:15;16.80;60.10
5461;DHT22;2753;49.196;8.286;2023-06-04T03:14:41;16.80;60.20
5461;DHT22;2753;49.196;8.286;2023-06-04T03:17:07;16.70;60.10
5461;DHT22;2753;49.196;8.286;2023-06-04T03:19:39;16.70;60.10
5461;DHT22;2753;49.196;8.286;2023-06-04T03:22:06;16.70;60.30
5461;DHT22;2753;49.196;8.286;2023-06-04T03:27:54;16.60;60.10
5461;DHT22;2753;49.196;8.286;2023-06-04T03:30:20;16.60;60.20
5461;DHT22;2753;49.196;8.286;2023-06-04T03:32:46;16.50;60.30
5461;DHT22;2753;49.196;8.286;2023-06-04T03:35:11;16.60;60.40
5461;DHT22;2753;49.196;8.286;2023-06-04T03:37:37;16.50;60.30
5461;DHT22;2753;49.196;8.286;2023-06-04T03:40:04;16.50;60.50
5461;DHT22;2753;49.196;8.286;2023-06-04T03:42:31;16.50;60.40
5461;DHT22;2753;49.196;8.286;2023-06-04T03:44:57;16.50;60.60
5461;DHT22;2753;49.196;8.286;2023-06-04T03:47:23;16.50;60.60
5461;DHT22;2753;49.196;8.286;2023-06-04T03:49:49;16.50;60.60
5461;DHT22;2753;49.196;8.286;2023-06-04T03:52:16;16.40;60.60
5461;DHT22;2753;49.196;8.286;2023-06-04T03:54:42;16.40;60.60
5461;DHT22;2753;49.196;8.286;2023-06-04T03:57:08;16.40;60.70
5461;DHT22;2753;49.196;8.286;2023-06-04T03:59:34;16.40;60.90
5461;DHT22;2753;49.196;8.286;2023-06-04T04:01:59;16.40;61.30
5461;DHT22;2753;49.196;8.286;2023-06-04T04:04:25;16.30;60.90
5461;DHT22;2753;49.196;8.286;2023-06-04T04:06:51;16.40;61.20
5461;DHT22;2753;49.196;8.286;2023-06-04T04:09:17;16.30;61.10
5461;DHT22;2753;49.196;8.286;2023-06-04T04:11:43;16.30;61.20
5461;DHT22;2753;49.196;8.286;2023-06-04T04:14:08;16.20;61.20
5461;DHT22;2753;49.196;8.286;2023-06-04T04:16:34;16.30;61.30
5461;DHT22;2753;49.196;8.286;2023-06-04T04:19:00;16.20;61.60
5461;DHT22;2753;49.196;8.286;2023-06-04T04:21:25;16.20;61.70
5461;DHT22;2753;49.196;8.286;2023-06-04T04:23:51;16.20;61.70
5461;DHT22;2753;49.196;8.286;2023-06-04T04:26:17;16.20;61.60
5461;DHT22;2753;49.196;8.286;2023-06-04T04:28:43;16.30;61.70
5461;DHT22;2753;49.196;8.286;2023-06-04T04:31:09;16.30;61.70
5461;DHT22;2753;49.196;8.286;2023-06-04T04:33:38;16.20;61.70
5461;DHT22;2753;49.196;8.286;2023-06-04T04:36:06;16.30;61.70
5461;DHT22;2753;49.196;8.286;2023-06-04T04:38:38;16.30;61.80
5461;DHT22;2753;49.196;8.286;2023-06-04T04:41:04;16.30;61.60
5461;DHT22;2753;49.196;8.286;2023-06-04T04:43:34;16.30;61.60
5461;DHT22;2753;49.196;8.286;2023-06-04T04:46:00;16.30;61.70
5461;DHT22;2753;49.196;8.286;2023-06-04T04:48:26;16.30;61.70
5461;DHT22;2753;49.196;8.286;2023-06-04T04:50:52;16.30;61.60
5461;DHT22;2753;49.196;8.286;2023-06-04T04:53:18;16.30;61.80
5461;DHT22;2753;49.196;8.286;2023-06-04T04:55:44;16.30;61.80
5461;DHT22;2753;49.196;8.286;2023-06-04T04:58:09;16.40;62.00
5461;DHT22;2753;49.196;8.286;2023-06-04T05:00:35;16.30;62.00
5461;DHT22;2753;49.196;8.286;2023-06-04T05:03:01;16.30;62.00
5461;DHT22;2753;49.196;8.286;2023-06-04T05:05:26;16.30;62.00
5461;DHT22;2753;49.196;8.286;2023-06-04T05:07:52;16.50;62.20
5461;DHT22;2753;49.196;8.286;2023-06-04T05:10:18;16.40;62.00
5461;DHT22;2753;49.196;8.286;2023-06-04T05:12:58;16.40;61.80
5461;DHT22;2753;49.196;8.286;2023-06-04T05:15:26;16.50;62.00
5461;DHT22;2753;49.196;8.286;2023-06-04T05:17:52;16.40;62.00
5461;DHT22;2753;49.196;8.286;2023-06-04T05:20:19;16.50;62.00
5461;DHT22;2753;49.196;8.286;2023-06-04T05:22:47;16.40;62.00
5461;DHT22;2753;49.196;8.286;2023-06-04T05:25:13;16.40;62.30
5461;DHT22;2753;49.196;8.286;2023-06-04T05:27:39;16.40;62.10
5461;DHT22;2753;49.196;8.286;2023-06-04T05:30:06;16.40;62.10
5461;DHT22;2753;49.196;8.286;2023-06-04T05:32:32;16.50;62.30
5461;DHT22;2753;49.196;8.286;2023-06-04T05:34:58;16.50;62.10
5461;DHT22;2753;49.196;8.286;2023-06-04T05:37:25;16.50;62.20
5461;DHT22;2753;49.196;8.286;2023-06-04T05:39:56;16.50;62.70
5461;DHT22;2753;49.196;8.286;2023-06-04T05:42:22;16.50;62.40
5461;DHT22;2753;49.196;8.286;2023-06-04T05:44:49;16.50;63.20
5461;DHT22;2753;49.196;8.286;2023-06-04T05:47:15;16.60;62.50
5461;DHT22;2753;49.196;8.286;2023-06-04T05:49:42;16.60;62.60
5461;DHT22;2753;49.196;8.286;2023-06-04T05:52:08;16.60;62.60
5461;DHT22;2753;49.196;8.286;2023-06-04T05:54:34;16.60;62.60
5461;DHT22;2753;49.196;8.286;2023-06-04T05:57:00;16.60;62.60
5461;DHT22;2753;49.196;8.286;2023-06-04T05:59:26;16.70;63.00
5461;DHT22;2753;49.196;8.286;2023-06-04T06:01:51;16.70;62.90
5461;DHT22;2753;49.196;8.286;2023-06-04T06:04:17;16.70;62.90
5461;DHT22;2753;49.196;8.286;2023-06-04T06:06:43;16.70;63.10
5461;DHT22;2753;49.196;8.286;2023-06-04T06:09:14;16.80;64.10
5461;DHT22;2753;49.196;8.286;2023-06-04T06:11:40;16.80;63.20
5461;DHT22;2753;49.196;8.286;2023-06-04T06:14:06;17.00;63.20
5461;DHT22;2753;49.196;8.286;2023-06-04T06:16:32;17.00;63.00
5461;DHT22;2753;49.196;8.286;2023-06-04T06:18:59;17.00;62.80
5461;DHT22;2753;49.196;8.286;2023-06-04T06:21:25;17.00;62.80
5461;DHT22;2753;49.196;8.286;2023-06-04T06:23:51;17.10;62.90
5461;DHT22;2753;49.196;8.286;2023-06-04T06:26:17;17.10;63.20
5461;DHT22;2753;49.196;8.286;2023-06-04T06:28:43;17.20;63.00
5461;DHT22;2753;49.196;8.286;2023-06-04T06:31:09;17.20;62.80
5461;DHT22;2753;49.196;8.286;2023-06-04T06:33:35;17.30;62.70
5461;DHT22;2753;49.196;8.286;2023-06-04T06:36:12;17.30;62.50
5461;DHT22;2753;49.196;8.286;2023-06-04T06:38:38;17.40;62.40
5461;DHT22;2753;49.196;8.286;2023-06-04T06:41:04;17.50;62.20
5461;DHT22;2753;49.196;8.286;2023-06-04T06:43:31;17.60;62.30
5461;DHT22;2753;49.196;8.286;2023-06-04T06:45:57;17.60;62.00
5461;DHT22;2753;49.196;8.286;2023-06-04T06:48:23;17.70;61.80
5461;DHT22;2753;49.196;8.286;2023-06-04T06:50:50;17.90;61.80
5461;DHT22;2753;49.196;8.286;2023-06-04T06:53:16;18.10;61.40
5461;DHT22;2753;49.196;8.286;2023-06-04T06:55:42;18.30;60.90
5461;DHT22;2753;49.196;8.286;2023-06-04T06:58:08;18.60;61.00
5461;DHT22;2753;49.196;8.286;2023-06-04T07:00:34;18.80;60.70
5461;DHT22;2753;49.196;8.286;2023-06-04T07:03:01;18.90;59.70
5461;DHT22;2753;49.196;8.286;2023-06-04T07:05:26;19.00;59.80
5461;DHT22;2753;49.196;8.286;2023-06-04T07:07:52;19.20;59.10
5461;DHT22;2753;49.196;8.286;2023-06-04T07:10:20;19.20;59.00
5461;DHT22;2753;49.196;8.286;2023-06-04T07:12:46;19.40;58.80
5461;DHT22;2753;49.196;8.286;2023-06-04T07:15:11;19.50;58.50
5461;DHT22;2753;49.196;8.286;2023-06-04T07:17:38;19.60;58.70
5461;DHT22;2753;49.196;8.286;2023-06-04T07:20:04;19.70;58.00
5461;DHT22;2753;49.196;8.286;2023-06-04T07:22:32;19.90;58.50
5461;DHT22;2753;49.196;8.286;2023-06-04T07:24:58;20.00;58.30
5461;DHT22;2753;49.196;8.286;2023-06-04T07:27:24;20.20;58.20
5461;DHT22;2753;49.196;8.286;2023-06-04T07:29:49;20.40;57.70
5461;DHT22;2753;49.196;8.286;2023-06-04T07:32:16;20.60;57.10
5461;DHT22;2753;49.196;8.286;2023-06-04T07:34:44;20.60;57.10
5461;DHT22;2753;49.196;8.286;2023-06-04T07:37:10;20.70;57.20
5461;DHT22;2753;49.196;8.286;2023-06-04T07:39:38;20.90;56.20
5461;DHT22;2753;49.196;8.286;2023-06-04T07:45:20;21.30;55.10
5461;DHT22;2753;49.196;8.286;2023-06-04T07:47:46;21.40;54.70
5461;DHT22;2753;49.196;8.286;2023-06-04T07:50:12;21.70;55.00
5461;DHT22;2753;49.196;8.286;2023-06-04T07:52:38;21.90;54.10
5461;DHT22;2753;49.196;8.286;2023-06-04T07:55:04;22.70;54.70
5461;DHT22;2753;49.196;8.286;2023-06-04T07:57:30;22.10;54.80
5461;DHT22;2753;49.196;8.286;2023-06-04T07:59:57;22.20;55.20
5461;DHT22;2753;49.196;8.286;2023-06-04T08:02:23;22.40;54.70
5461;DHT22;2753;49.196;8.286;2023-06-04T08:04:49;22.50;54.70
5461;DHT22;2753;49.196;8.286;2023-06-04T08:07:15;22.60;54.70
5461;DHT22;2753;49.196;8.286;2023-06-04T08:09:41;22.80;53.70
5461;DHT22;2753;49.196;8.286;2023-06-04T08:12:07;23.00;53.80
5461;DHT22;2753;49.196;8.286;2023-06-04T08:14:33;23.10;53.60
5461;DHT22;2753;49.196;8.286;2023-06-04T08:17:03;23.10;53.90
5461;DHT22;2753;49.196;8.286;2023-06-04T08:19:32;23.20;53.30
5461;DHT22;2753;49.196;8.286;2023-06-04T08:22:00;23.40;52.70
5461;DHT22;2753;49.196;8.286;2023-06-04T08:24:38;23.50;52.00
5461;DHT22;2753;49.196;8.286;2023-06-04T08:30:55;23.70;52.60
5461;DHT22;2753;49.196;8.286;2023-06-04T08:33:22;23.90;52.70
5461;DHT22;2753;49.196;8.286;2023-06-04T08:35:53;24.30;53.10
5461;DHT22;2753;49.196;8.286;2023-06-04T08:38:23;24.40;52.40
5461;DHT22;2753;49.196;8.286;2023-06-04T08:40:52;24.60;51.30
5461;DHT22;2753;49.196;8.286;2023-06-04T08:43:20;24.60;52.10
5461;DHT22;2753;49.196;8.286;2023-06-04T08:45:49;24.60;51.90
5461;DHT22;2753;49.196;8.286;2023-06-04T08:48:21;24.90;52.80
5461;DHT22;2753;49.196;8.286;2023-06-04T08:50:50;24.80;51.40
5461;DHT22;2753;49.196;8.286;2023-06-04T08:53:16;25.00;50.90
5461;DHT22;2753;49.196;8.286;2023-06-04T08:55:43;25.10;51.50
5461;DHT22;2753;49.196;8.286;2023-06-04T08:58:10;25.10;51.10
5461;DHT22;2753;49.196;8.286;2023-06-04T09:00:36;25.10;50.90
5461;DHT22;2753;49.196;8.286;2023-06-04T09:03:02;25.20;51.70
5461;DHT22;2753;49.196;8.286;2023-06-04T09:05:31;25.20;51.10
5461;DHT22;2753;49.196;8.286;2023-06-04T09:08:00;25.40;51.10
5461;DHT22;2753;49.196;8.286;2023-06-04T09:10:29;25.50;50.80
5461;DHT22;2753;49.196;8.286;2023-06-04T09:12:57;25.50;49.70
5461;DHT22;2753;49.196;8.286;2023-06-04T09:15:24;25.50;49.90
5461;DHT22;2753;49.196;8.286;2023-06-04T09:17:50;25.40;50.30
5461;DHT22;2753;49.196;8.286;2023-06-04T09:20:23;25.30;50.80
5461;DHT22;2753;49.196;8.286;2023-06-04T09:22:49;25.40;50.60
5461;DHT22;2753;49.196;8.286;2023-06-04T09:25:26;25.40;50.00
5461;DHT22;2753;49.196;8.286;2023-06-04T09:27:53;25.10;50.60
5461;DHT22;2753;49.196;8.286;2023-06-04T09:30:21;25.10;50.60
5461;DHT22;2753;49.196;8.286;2023-06-04T09:32:50;25.20;50.70
5461;DHT22;2753;49.196;8.286;2023-06-04T09:35:19;25.10;50.50
5461;DHT22;2753;49.196;8.286;2023-06-04T09:37:55;25.20;50.80
5461;DHT22;2753;49.196;8.286;2023-06-04T09:40:22;25.20;50.00
5461;DHT22;2753;49.196;8.286;2023-06-04T09:42:49;25.20;50.50
5461;DHT22;2753;49.196;8.286;2023-06-04T09:45:34;25.20;49.80
5461;DHT22;2753;49.196;8.286;2023-06-04T09:48:01;25.10;49.90
5461;DHT22;2753;49.196;8.286;2023-06-04T09:50:29;25.10;50.00
5461;DHT22;2753;49.196;8.286;2023-06-04T09:52:55;25.00;49.70
5461;DHT22;2753;49.196;8.286;2023-06-04T09:55:22;25.10;50.60
5461;DHT22;2753;49.196;8.286;2023-06-04T09:57:49;25.10;50.50
5461;DHT22;2753;49.196;8.286;2023-06-04T10:00:20;25.10;49.60
5461;DHT22;2753;49.196;8.286;2023-06-04T10:02:47;25.20;49.80
5461;DHT22;2753;49.196;8.286;2023-06-04T10:05:14;25.10;47.30
5461;DHT22;2753;49.196;8.286;2023-06-04T10:07:44;25.10;47.80
5461;DHT22;2753;49.196;8.286;2023-06-04T10:10:15;25.00;47.40
5461;DHT22;2753;49.196;8.286;2023-06-04T10:12:42;25.00;47.90
5461;DHT22;2753;49.196;8.286;2023-06-04T10:15:13;25.00;48.10
5461;DHT22;2753;49.196;8.286;2023-06-04T10:17:39;25.10;47.80
5461;DHT22;2753;49.196;8.286;2023-06-04T10:20:07;25.00;46.10
5461;DHT22;2753;49.196;8.286;2023-06-04T10:22:35;24.90;45.50
5461;DHT22;2753;49.196;8.286;2023-06-04T10:25:01;24.80;45.70
5461;DHT22;2753;49.196;8.286;2023-06-04T10:27:30;24.80;45.70
5461;DHT22;2753;49.196;8.286;2023-06-04T10:29:56;24.80;45.40
5461;DHT22;2753;49.196;8.286;2023-06-04T10:32:29;24.80;46.10
5461;DHT22;2753;49.196;8.286;2023-06-04T10:34:55;24.80;44.60
5461;DHT22;2753;49.196;8.286;2023-06-04T10:37:24;24.80;44.70
5461;DHT22;2753;49.196;8.286;2023-06-04T10:39:57;24.90;45.50
5461;DHT22;2753;49.196;8.286;2023-06-04T10:42:23;24.90;44.30
5461;DHT22;2753;49.196;8.286;2023-06-04T10:44:54;24.80;44.10
5461;DHT22;2753;49.196;8.286;2023-06-04T10:47:25;24.70;43.70
5461;DHT22;2753;49.196;8.286;2023-06-04T10:49:54;24.60;43.60
5461;DHT22;2753;49.196;8.286;2023-06-04T10:52:21;24.50;44.10
5461;DHT22;2753;49.196;8.286;2023-06-04T10:54:47;24.50;45.20
5461;DHT22;2753;49.196;8.286;2023-06-04T10:57:19;24.60;44.80
5461;DHT22;2753;49.196;8.286;2023-06-04T10:59:58;24.70;45.40
5461;DHT22;2753;49.196;8.286;2023-06-04T11:02:25;24.70;44.70
5461;DHT22;2753;49.196;8.286;2023-06-04T11:07:42;24.70;44.60
5461;DHT22;2753;49.196;8.286;2023-06-04T11:10:15;24.70;44.60
5461;DHT22;2753;49.196;8.286;2023-06-04T11:12:49;24.70;44.10
5461;DHT22;2753;49.196;8.286;2023-06-04T11:15:18;24.70;44.10
5461;DHT22;2753;49.196;8.286;2023-06-04T11:20:18;24.70;44.30
5461;DHT22;2753;49.196;8.286;2023-06-04T11:22:54;24.70;44.40
5461;DHT22;2753;49.196;8.286;2023-06-04T11:25:22;24.70;44.60
5461;DHT22;2753;49.196;8.286;2023-06-04T11:27:49;24.70;44.40
5461;DHT22;2753;49.196;8.286;2023-06-04T11:30:16;24.80;43.50
5461;DHT22;2753;49.196;8.286;2023-06-04T11:32:42;24.70;44.00
5461;DHT22;2753;49.196;8.286;2023-06-04T11:35:08;24.70;45.00
5461;DHT22;2753;49.196;8.286;2023-06-04T11:37:34;24.70;44.10
5461;DHT22;2753;49.196;8.286;2023-06-04T11:40:02;24.70;44.80
5461;DHT22;2753;49.196;8.286;2023-06-04T11:42:30;24.80;44.90
5461;DHT22;2753;49.196;8.286;2023-06-04T11:44:57;24.80;45.40
5461;DHT22;2753;49.196;8.286;2023-06-04T11:47:24;24.80;45.60
5461;DHT22;2753;49.196;8.286;2023-06-04T11:49:56;24.90;45.60
5461;DHT22;2753;49.196;8.286;2023-06-04T11:52:22;24.80;45.30
5461;DHT22;2753;49.196;8.286;2023-06-04T11:54:48;24.70;45.00
5461;DHT22;2753;49.196;8.286;2023-06-04T11:57:14;24.70;45.40
5461;DHT22;2753;49.196;8.286;2023-06-04T11:59:41;24.80;46.00
5461;DHT22;2753;49.196;8.286;2023-06-04T12:02:07;24.90;45.30
5461;DHT22;2753;49.196;8.286;2023-06-04T12:04:33;24.90;45.70
5461;DHT22;2753;49.196;8.286;2023-06-04T12:07:00;24.90;45.00
5461;DHT22;2753;49.196;8.286;2023-06-04T12:09:31;24.80;45.50
5461;DHT22;2753;49.196;8.286;2023-06-04T12:11:58;24.80;45.80
5461;DHT22;2753;49.196;8.286;2023-06-04T12:14:25;24.90;45.80
5461;DHT22;2753;49.196;8.286;2023-06-04T12:16:55;24.90;45.80
5461;DHT22;2753;49.196;8.286;2023-06-04T12:19:21;24.90;45.10
5461;DHT22;2753;49.196;8.286;2023-06-04T12:21:59;24.90;45.90
5461;DHT22;2753;49.196;8.286;2023-06-04T12:24:26;24.90;45.50
5461;DHT22;2753;49.196;8.286;2023-06-04T12:27:02;24.90;45.70
5461;DHT22;2753;49.196;8.286;2023-06-04T12:29:28;24.90;45.60
5461;DHT22;2753;49.196;8.286;2023-06-04T12:32:05;24.90;45.70
5461;DHT22;2753;49.196;8.286;2023-06-04T12:34:33;24.90;46.10
5461;DHT22;2753;49.196;8.286;2023-06-04T12:37:00;24.90;45.40
5461;DHT22;2753;49.196;8.286;2023-06-04T12:39:25;24.90;45.60
5461;DHT22;2753;49.196;8.286;2023-06-04T12:41:51;24.90;45.20
5461;DHT22;2753;49.196;8.286;2023-06-04T12:44:17;24.90;45.50
5461;DHT22;2753;49.196;8.286;2023-06-04T12:46:43;25.00;45.10
5461;DHT22;2753;49.196;8.286;2023-06-04T12:49:08;25.00;44.50
5461;DHT22;2753;49.196;8.286;2023-06-04T12:51:34;24.90;44.80
5461;DHT22;2753;49.196;8.286;2023-06-04T12:54:01;24.90;45.30
5461;DHT22;2753;49.196;8.286;2023-06-04T12:56:27;24.90;45.50
5461;DHT22;2753;49.196;8.286;2023-06-04T12:58:53;25.00;45.40
5461;DHT22;2753;49.196;8.286;2023-06-04T13:01:18;25.10;45.80
5461;DHT22;2753;49.196;8.286;2023-06-04T13:03:44;25.00;45.50
5461;DHT22;2753;49.196;8.286;2023-06-04T13:42:26;25.30;45.00
5461;DHT22;2753;49.196;8.286;2023-06-04T13:44:52;25.30;45.30
5461;DHT22;2753;49.196;8.286;2023-06-04T14:10:28;25.30;44.30
5461;DHT22;2753;49.196;8.286;2023-06-04T14:12:54;25.30;44.00
5461;DHT22;2753;49.196;8.286;2023-06-04T14:15:19;25.30;43.90
5461;DHT22;2753;49.196;8.286;2023-06-04T14:17:45;25.30;44.00
5461;DHT22;2753;49.196;8.286;2023-06-04T14:20:12;25.30;44.00
5461;DHT22;2753;49.196;8.286;2023-06-04T14:22:38;25.30;44.10
5461;DHT22;2753;49.196;8.286;2023-06-04T14:25:05;25.30;43.20
5461;DHT22;2753;49.196;8.286;2023-06-04T14:27:32;25.40;43.60
5461;DHT22;2753;49.196;8.286;2023-06-04T14:29:58;25.40;43.90
5461;DHT22;2753;49.196;8.286;2023-06-04T14:32:24;25.40;44.20
5461;DHT22;2753;49.196;8.286;2023-06-04T14:34:50;25.40;43.70
5461;DHT22;2753;49.196;8.286;2023-06-04T14:37:15;25.50;43.60
5461;DHT22;2753;49.196;8.286;2023-06-04T14:39:41;25.40;43.40
5461;DHT22;2753;49.196;8.286;2023-06-04T14:42:07;25.40;43.40
5461;DHT22;2753;49.196;8.286;2023-06-04T14:44:32;25.50;43.80
5461;DHT22;2753;49.196;8.286;2023-06-04T14:46:59;25.40;43.60
5461;DHT22;2753;49.196;8.286;2023-06-04T14:49:25;25.40;44.00
5461;DHT22;2753;49.196;8.286;2023-06-04T14:51:50;25.40;43.50
5461;DHT22;2753;49.196;8.286;2023-06-04T14:54:16;25.40;43.70
5461;DHT22;2753;49.196;8.286;2023-06-04T14:56:42;25.40;44.30
5461;DHT22;2753;49.196;8.286;2023-06-04T14:59:09;25.40;43.20
5461;DHT22;2753;49.196;8.286;2023-06-04T15:01:37;25.40;43.00
5461;DHT22;2753;49.196;8.286;2023-06-04T15:04:04;25.40;43.50
5461;DHT22;2753;49.196;8.286;2023-06-04T15:06:30;25.40;43.20
5461;DHT22;2753;49.196;8.286;2023-06-04T15:08:55;25.40;43.40
5461;DHT22;2753;49.196;8.286;2023-06-04T15:11:21;25.50;43.40
5461;DHT22;2753;49.196;8.286;2023-06-04T15:13:47;25.50;42.60
5461;DHT22;2753;49.196;8.286;2023-06-04T15:16:12;25.40;42.90
5461;DHT22;2753;49.196;8.286;2023-06-04T15:18:38;25.40;43.00
5461;DHT22;2753;49.196;8.286;2023-06-04T15:21:04;25.40;43.10
5461;DHT22;2753;49.196;8.286;2023-06-04T15:23:29;25.40;43.10
5461;DHT22;2753;49.196;8.286;2023-06-04T15:25:55;25.50;43.50
5461;DHT22;2753;49.196;8.286;2023-06-04T15:28:21;25.60;43.20
5461;DHT22;2753;49.196;8.286;2023-06-04T15:30:46;25.60;43.10
5461;DHT22;2753;49.196;8.286;2023-06-04T15:33:12;25.50;42.70
5461;DHT22;2753;49.196;8.286;2023-06-04T15:35:38;25.50;42.50
5461;DHT22;2753;49.196;8.286;2023-06-04T15:38:04;25.40;42.00
5461;DHT22;2753;49.196;8.286;2023-06-04T15:40:29;25.40;42.40
5461;DHT22;2753;49.196;8.286;2023-06-04T15:43:14;25.40;42.60
5461;DHT22;2753;49.196;8.286;2023-06-04T15:45:44;25.40;43.00
5461;DHT22;2753;49.196;8.286;2023-06-04T15:48:24;25.40;42.10
5461;DHT22;2753;49.196;8.286;2023-06-04T15:50:58;25.40;42.40
5461;DHT22;2753;49.196;8.286;2023-06-04T15:53:27;25.40;41.70
5461;DHT22;2753;49.196;8.286;2023-06-04T15:55:56;25.40;41.30
5461;DHT22;2753;49.196;8.286;2023-06-04T15:58:33;25.40;41.10
5461;DHT22;2753;49.196;8.286;2023-06-04T16:01:02;25.40;41.50
5461;DHT22;2753;49.196;8.286;2023-06-04T16:03:28;25.40;41.40
5461;DHT22;2753;49.196;8.286;2023-06-04T16:05:54;25.40;41.20
5461;DHT22;2753;49.196;8.286;2023-06-04T16:08:20;25.40;41.10
5461;DHT22;2753;49.196;8.286;2023-06-04T16:10:46;25.40;41.90
5461;DHT22;2753;49.196;8.286;2023-06-04T16:13:12;25.40;41.30
5461;DHT22;2753;49.196;8.286;2023-06-04T16:15:38;25.40;41.20
5461;DHT22;2753;49.196;8.286;2023-06-04T16:18:03;25.40;41.50
5461;DHT22;2753;49.196;8.286;2023-06-04T16:20:29;25.40;40.50
5461;DHT22;2753;49.196;8.286;2023-06-04T16:22:55;25.40;40.10
5461;DHT22;2753;49.196;8.286;2023-06-04T16:25:20;25.40;40.50
5461;DHT22;2753;49.196;8.286;2023-06-04T16:27:46;25.30;40.40
5461;DHT22;2753;49.196;8.286;2023-06-04T16:30:13;25.30;39.90
5461;DHT22;2753;49.196;8.286;2023-06-04T16:32:39;25.30;40.70
5461;DHT22;2753;49.196;8.286;2023-06-04T16:35:05;25.30;41.20
5461;DHT22;2753;49.196;8.286;2023-06-04T16:37:33;25.30;40.30
5461;DHT22;2753;49.196;8.286;2023-06-04T16:39:59;25.30;40.90
5461;DHT22;2753;49.196;8.286;2023-06-04T16:42:24;25.30;40.80
5461;DHT22;2753;49.196;8.286;2023-06-04T16:44:51;25.30;40.80
5461;DHT22;2753;49.196;8.286;2023-06-04T16:47:17;25.30;40.90
5461;DHT22;2753;49.196;8.286;2023-06-04T16:49:43;25.20;40.70
5461;DHT22;2753;49.196;8.286;2023-06-04T16:52:09;25.20;40.60
5461;DHT22;2753;49.196;8.286;2023-06-04T16:54:34;25.20;40.80
5461;DHT22;2753;49.196;8.286;2023-06-04T16:57:00;25.30;40.90
5461;DHT22;2753;49.196;8.286;2023-06-04T16:59:26;25.20;40.40
5461;DHT22;2753;49.196;8.286;2023-06-04T17:01:55;25.20;40.20
5461;DHT22;2753;49.196;8.286;2023-06-04T17:04:22;25.10;40.10
5461;DHT22;2753;49.196;8.286;2023-06-04T17:06:48;25.20;40.90
5461;DHT22;2753;49.196;8.286;2023-06-04T17:09:14;25.20;40.70
5461;DHT22;2753;49.196;8.286;2023-06-04T17:11:39;25.10;40.50
5461;DHT22;2753;49.196;8.286;2023-06-04T17:14:05;25.10;40.50
5461;DHT22;2753;49.196;8.286;2023-06-04T19:02:35;24.10;42.50
5461;DHT22;2753;49.196;8.286;2023-06-04T19:05:02;24.10;42.80
5461;DHT22;2753;49.196;8.286;2023-06-04T19:07:28;24.10;42.90
5461;DHT22;2753;49.196;8.286;2023-06-04T19:09:54;24.00;43.10
5461;DHT22;2753;49.196;8.286;2023-06-04T19:12:22;24.00;43.30
5461;DHT22;2753;49.196;8.286;2023-06-04T19:14:48;24.00;43.50
5461;DHT22;2753;49.196;8.286;2023-06-04T19:17:18;23.90;43.60